Aérodrome :
LOGIN :

S'inscrire | Disclaimer

   EN    FR    IT 

 










Légende :    VFR   VFR Marginal   IFR   IFR Intensif   IFR Très Intensif
Visi : 
Plafond : 
>= 8 km
>= 3000ft
5 à 8 km
1000 à 3000 ft
1500m à 5 km
500 à 1000 ft
800 à 1500m
200 à 500 ft
< 800m
< 200 ft
Symboles :   Orages  Brouillard  Fortes neiges  Fortes précipitations  Vent > 20 kt
SIGMETs :   Divers  Orages  Givrage  Turbulence  Onde Orograph.  Cendres Volcan.







- Altitude de l'aérodrome : 309 ft
- Code IATA : FNI
- Voir les cartes d'approche


LFTW - Nîmes Garons

DERNIER METAR :
  • 242000Z AUTO 03006KT CAVOK 23/11 Q1016

METARs EXPIRÉS :
  • 241930Z AUTO 02008KT CAVOK 24/10 Q1016 NOSIG
  • 241900Z AUTO 03008KT CAVOK 24/11 Q1015 NOSIG
  • 241830Z AUTO 03011KT 360V060 CAVOK 25/11 Q1015 NOSIG
  • 241800Z AUTO 03009KT 360V070 CAVOK 26/11 Q1015 NOSIG
  • 241730Z AUTO 04009KT CAVOK 27/11 Q1015 NOSIG

TAF TAF LFTW
Valide du 24 à 15h jusqu'au 25 à 15h UTC


241400Z 2415/2515 VRB05KT CAVOK
TEMPO 2505/2515 36015G25KT
Pas de NOTAMs connus pour ce terrain.



MET'MAP, la Météo Aéronautique d'un coup d'oeil ! - Copyright ORBIFLY Décembre 2007 - Disclaimer

ORBIFLY MET'MAP TEAM :

Programmation & Développement : Alexandra Zaïnal
Conception & Développement : Baudouin d'Aumeries
Co-Programmation & Développement : Marc-Olivier Méhu
Soutien technique & logistique : Manuel Goepfert

Contact : metmap@orbifly.com




SOURCES & CREDITS :

   NOAA